Time;durP1;ratioP1;P1;durP2;ratioP2;P2;SDS_P1;SDS_P2;PMS_P1;PMS_P2;Temp;Humidity;BMP_temperature;BMP_pressure;BME280_temperature;BME280_humidity;BME280_pressure;Samples;Min_cycle;Max_cycle;Signal;HPM_P1;HPM_P2
2022/03/15 00:01:27;;;;;;;15.52;10.38;;;;;;;;;;143743;577;46010;-68
2022/03/15 00:03:54;;;;;;;16.35;10.38;;;;;;;;;;143743;573;46022;-68
2022/03/15 00:06:21;;;;;;;14.23;10.15;;;;;;;;;;143736;729;46018;-67
2022/03/15 00:08:48;;;;;;;14.20;9.27;;;;;;;;;;143742;727;46022;-67
2022/03/15 00:11:15;;;;;;;12.05;8.35;;;;;;;;;;143743;593;46010;-67
2022/03/15 00:13:43;;;;;;;12.73;9.10;;;;;;;;;;143743;586;46022;-67
2022/03/15 00:16:10;;;;;;;11.05;8.15;;;;;;;;;;143742;603;46021;-67
2022/03/15 00:18:38;;;;;;;11.18;8.68;;;;;;;;;;143741;563;46022;-66
2022/03/15 00:21:11;;;;;;;14.87;9.48;;;;;;;;;;143744;570;45912;-68
2022/03/15 00:23:38;;;;;;;13.82;9.18;;;;;;;;;;143744;600;45023;-67
2022/03/15 00:26:06;;;;;;;11.02;8.38;;;;;;;;;;143743;635;46018;-67
2022/03/15 00:28:34;;;;;;;11.55;7.82;;;;;;;;;;143740;584;46023;-68
2022/03/15 00:31:01;;;;;;;12.30;8.70;;;;;;;;;;143737;587;45912;-67
2022/03/15 00:33:30;;;;;;;12.35;9.43;;;;;;;;;;143742;570;45022;-67
2022/03/15 00:35:59;;;;;;;17.02;11.88;;;;;;;;;;143742;566;46019;-66
2022/03/15 00:38:26;;;;;;;14.13;10.30;;;;;;;;;;143737;697;46922;-67
2022/03/15 00:40:53;;;;;;;17.52;11.75;;;;;;;;;;143743;591;45911;-67
2022/03/15 00:43:20;;;;;;;15.35;9.68;;;;;;;;;;143742;655;46022;-67
2022/03/15 00:45:47;;;;;;;12.85;9.38;;;;;;;;;;143742;598;46018;-66
2022/03/15 00:48:14;;;;;;;17.27;11.93;;;;;;;;;;143739;573;46922;-67
2022/03/15 00:50:41;;;;;;;16.37;11.25;;;;;;;;;;143740;618;46018;-68
2022/03/15 00:53:10;;;;;;;16.52;11.93;;;;;;;;;;143741;656;46023;-68
2022/03/15 00:55:37;;;;;;;15.52;10.88;;;;;;;;;;143734;701;46020;-68
2022/03/15 00:58:05;;;;;;;26.55;16.70;;;;;;;;;;143739;581;46023;-67
2022/03/15 01:00:33;;;;;;;29.77;15.95;;;;;;;;;;143742;586;46010;-68
2022/03/15 01:03:00;;;;;;;40.78;22.17;;;;;;;;;;143741;578;45022;-67
2022/03/15 01:05:26;;;;;;;54.00;27.75;;;;;;;;;;143742;622;46019;-66
2022/03/15 01:07:53;;;;;;;47.50;23.90;;;;;;;;;;143737;569;47010;-67
2022/03/15 01:10:21;;;;;;;37.25;19.58;;;;;;;;;;143741;566;45911;-66
2022/03/15 01:12:48;;;;;;;30.55;17.30;;;;;;;;;;143741;581;45023;-67
2022/03/15 01:15:15;;;;;;;34.45;20.55;;;;;;;;;;143741;608;47018;-66
2022/03/15 01:17:43;;;;;;;56.75;27.15;;;;;;;;;;143735;582;46022;-66
2022/03/15 01:20:10;;;;;;;46.00;24.27;;;;;;;;;;143729;566;46018;-66
2022/03/15 01:22:37;;;;;;;45.33;23.58;;;;;;;;;;143742;596;45023;-68
2022/03/15 01:25:05;;;;;;;41.67;24.15;;;;;;;;;;143740;600;46018;-66
2022/03/15 01:27:31;;;;;;;46.60;24.50;;;;;;;;;;143738;609;46022;-68
2022/03/15 01:29:59;;;;;;;48.15;24.63;;;;;;;;;;143741;590;45911;-67
2022/03/15 01:32:26;;;;;;;48.45;25.40;;;;;;;;;;143742;707;45022;-67
2022/03/15 01:34:53;;;;;;;48.63;24.92;;;;;;;;;;143736;602;46019;-68
2022/03/15 01:37:20;;;;;;;49.83;24.40;;;;;;;;;;143737;581;46922;-67
2022/03/15 01:39:47;;;;;;;40.95;22.80;;;;;;;;;;143740;579;46010;-67
2022/03/15 01:42:14;;;;;;;32.95;19.48;;;;;;;;;;143743;608;45023;-67
2022/03/15 01:44:46;;;;;;;47.67;23.15;;;;;;;;;;143734;598;46021;-66
2022/03/15 01:47:13;;;;;;;30.60;17.23;;;;;;;;;;143738;590;47010;-68
2022/03/15 01:49:40;;;;;;;38.75;20.25;;;;;;;;;;143738;606;46017;-68
2022/03/15 01:52:13;;;;;;;34.17;16.73;;;;;;;;;;143741;565;45023;-68
2022/03/15 01:54:40;;;;;;;32.22;19.37;;;;;;;;;;143742;566;46018;-67
2022/03/15 01:57:11;;;;;;;40.63;22.58;;;;;;;;;;143736;587;46922;-68
2022/03/15 01:59:38;;;;;;;37.92;19.30;;;;;;;;;;143741;575;46010;-67
2022/03/15 02:02:05;;;;;;;27.02;15.20;;;;;;;;;;143742;713;45022;-68
2022/03/15 02:04:33;;;;;;;39.05;23.20;;;;;;;;;;143742;586;46019;-67
2022/03/15 02:07:13;;;;;;;34.45;19.62;;;;;;;;;;143738;606;46023;-66
2022/03/15 02:09:41;;;;;;;38.78;21.48;;;;;;;;;;143734;700;46010;-67
2022/03/15 02:12:08;;;;;;;27.42;16.08;;;;;;;;;;143741;573;45023;-67
2022/03/15 02:14:35;;;;;;;27.85;15.68;;;;;;;;;;143743;587;46018;-67
2022/03/15 02:17:03;;;;;;;32.22;18.52;;;;;;;;;;143735;564;46921;-66
2022/03/15 02:19:30;;;;;;;24.12;14.52;;;;;;;;;;143741;621;46010;-67
2022/03/15 02:21:59;;;;;;;23.75;14.52;;;;;;;;;;143743;669;45023;-68
2022/03/15 02:24:26;;;;;;;24.17;14.20;;;;;;;;;;143742;593;46018;-66
2022/03/15 02:26:53;;;;;;;28.67;16.10;;;;;;;;;;143737;632;46921;-68
2022/03/15 02:29:22;;;;;;;23.98;12.93;;;;;;;;;;143740;678;46911;-67
2022/03/15 02:31:49;;;;;;;27.45;15.85;;;;;;;;;;143741;572;46022;-68
2022/03/15 02:34:19;;;;;;;37.42;19.67;;;;;;;;;;143733;580;46019;-66
2022/03/15 02:36:47;;;;;;;34.25;19.58;;;;;;;;;;143737;699;47010;-66
2022/03/15 02:39:14;;;;;;;30.20;17.62;;;;;;;;;;143741;564;46016;-67
2022/03/15 02:41:41;;;;;;;29.25;17.35;;;;;;;;;;143740;587;46021;-67
2022/03/15 02:44:09;;;;;;;36.58;18.37;;;;;;;;;;143741;570;46019;-67
2022/03/15 02:46:39;;;;;;;29.98;17.27;;;;;;;;;;143739;565;46022;-66
2022/03/15 02:49:12;;;;;;;27.50;15.80;;;;;;;;;;143740;606;46010;-66
2022/03/15 02:51:38;;;;;;;28.58;17.58;;;;;;;;;;143741;581;46023;-66
2022/03/15 02:54:11;;;;;;;24.87;15.30;;;;;;;;;;143741;598;46018;-66
2022/03/15 02:56:42;;;;;;;23.35;14.35;;;;;;;;;;143738;598;46022;-67
2022/03/15 02:59:10;;;;;;;20.95;13.13;;;;;;;;;;143736;579;46018;-68
2022/03/15 03:01:37;;;;;;;23.42;13.05;;;;;;;;;;143740;583;46022;-67
2022/03/15 03:04:04;;;;;;;23.38;13.77;;;;;;;;;;143742;574;47018;-67
2022/03/15 03:06:31;;;;;;;25.35;14.82;;;;;;;;;;143738;579;46023;-67
2022/03/15 03:08:58;;;;;;;21.02;12.85;;;;;;;;;;143739;569;46010;-68
2022/03/15 03:11:25;;;;;;;22.95;14.00;;;;;;;;;;143743;586;45023;-67
2022/03/15 03:13:58;;;;;;;29.87;15.85;;;;;;;;;;143743;598;46018;-66
2022/03/15 03:16:26;;;;;;;30.90;16.33;;;;;;;;;;143737;575;46022;-66
2022/03/15 03:19:00;;;;;;;27.33;15.93;;;;;;;;;;143741;582;46011;-68
2022/03/15 03:21:27;;;;;;;29.83;15.52;;;;;;;;;;143743;571;45023;-67
2022/03/15 03:23:55;;;;;;;43.10;20.88;;;;;;;;;;143735;579;46018;-67
2022/03/15 03:26:23;;;;;;;36.10;20.60;;;;;;;;;;143737;622;46921;-66
2022/03/15 03:28:51;;;;;;;34.58;18.27;;;;;;;;;;143742;572;46010;-66
2022/03/15 03:31:18;;;;;;;38.15;20.25;;;;;;;;;;143741;648;46022;-68
2022/03/15 03:33:45;;;;;;;32.70;16.98;;;;;;;;;;143739;591;46020;-67
2022/03/15 03:36:12;;;;;;;28.20;17.10;;;;;;;;;;143738;589;46921;-66
2022/03/15 03:38:41;;;;;;;30.02;18.42;;;;;;;;;;143741;604;46010;-68
2022/03/15 03:41:08;;;;;;;30.50;16.55;;;;;;;;;;143741;586;46022;-67
2022/03/15 03:43:35;;;;;;;31.50;17.52;;;;;;;;;;143741;591;46019;-67
2022/03/15 03:46:02;;;;;;;29.37;17.48;;;;;;;;;;143738;639;46022;-68
2022/03/15 03:48:29;;;;;;;25.00;15.23;;;;;;;;;;143734;567;46911;-67
2022/03/15 03:50:56;;;;;;;26.17;14.55;;;;;;;;;;143742;589;45023;-67
2022/03/15 03:53:24;;;;;;;25.37;14.20;;;;;;;;;;143741;600;46018;-68
2022/03/15 03:55:51;;;;;;;24.65;14.93;;;;;;;;;;143735;569;46921;-67
2022/03/15 03:58:18;;;;;;;28.58;15.23;;;;;;;;;;143742;638;45912;-67
2022/03/15 04:00:45;;;;;;;29.73;16.87;;;;;;;;;;143741;643;46022;-68
2022/03/15 04:03:15;;;;;;;30.98;16.50;;;;;;;;;;143741;619;46018;-68
2022/03/15 04:05:42;;;;;;;29.85;17.08;;;;;;;;;;143740;591;46022;-68
2022/03/15 04:08:08;;;;;;;24.08;14.38;;;;;;;;;;143741;720;46018;-68
2022/03/15 04:10:37;;;;;;;28.00;14.65;;;;;;;;;;143741;589;46022;-68
2022/03/15 04:13:04;;;;;;;21.02;11.95;;;;;;;;;;143735;572;46018;-67
2022/03/15 04:15:32;;;;;;;22.87;13.15;;;;;;;;;;143739;564;46022;-67
2022/03/15 04:17:58;;;;;;;22.40;13.38;;;;;;;;;;143740;570;45911;-67
2022/03/15 04:20:25;;;;;;;25.27;15.38;;;;;;;;;;143740;597;46023;-68
2022/03/15 04:22:53;;;;;;;22.25;12.88;;;;;;;;;;143741;589;46018;-69
2022/03/15 04:25:20;;;;;;;22.15;14.10;;;;;;;;;;143737;572;46022;-69
2022/03/15 04:27:47;;;;;;;22.67;13.73;;;;;;;;;;143741;572;46010;-67
2022/03/15 04:30:14;;;;;;;27.80;16.25;;;;;;;;;;143743;577;45022;-68
2022/03/15 04:32:41;;;;;;;26.75;13.60;;;;;;;;;;143742;605;46018;-68
2022/03/15 04:35:08;;;;;;;25.50;15.73;;;;;;;;;;143735;574;46921;-67
2022/03/15 04:37:35;;;;;;;21.87;12.95;;;;;;;;;;143735;589;46010;-67
2022/03/15 04:40:02;;;;;;;23.52;12.93;;;;;;;;;;143741;565;46022;-67
2022/03/15 04:42:29;;;;;;;19.50;12.37;;;;;;;;;;143742;601;46019;-68
2022/03/15 04:44:56;;;;;;;29.50;13.82;;;;;;;;;;143736;577;46022;-67
2022/03/15 04:47:23;;;;;;;22.85;13.07;;;;;;;;;;143741;598;46010;-68
2022/03/15 04:49:50;;;;;;;18.92;12.45;;;;;;;;;;143740;643;46023;-68
2022/03/15 04:52:17;;;;;;;20.92;13.15;;;;;;;;;;143741;644;46018;-67
2022/03/15 04:54:45;;;;;;;17.98;12.37;;;;;;;;;;143740;579;46022;-68
2022/03/15 04:57:12;;;;;;;20.05;12.68;;;;;;;;;;143743;571;45911;-67
2022/03/15 04:59:39;;;;;;;24.55;12.93;;;;;;;;;;143741;579;45022;-67
2022/03/15 05:02:06;;;;;;;18.27;11.60;;;;;;;;;;143737;594;46010;-67
2022/03/15 05:04:33;;;;;;;20.23;12.77;;;;;;;;;;143734;597;46023;-67
2022/03/15 05:07:00;;;;;;;18.75;11.88;;;;;;;;;;143741;604;46020;-68
2022/03/15 05:09:27;;;;;;;23.10;13.88;;;;;;;;;;143744;695;45022;-68
2022/03/15 05:11:54;;;;;;;18.00;12.15;;;;;;;;;;143741;569;46019;-69
2022/03/15 05:14:21;;;;;;;21.83;13.38;;;;;;;;;;143734;598;46022;-67
2022/03/15 05:16:48;;;;;;;20.90;12.48;;;;;;;;;;143741;569;45911;-68
2022/03/15 05:19:16;;;;;;;17.40;11.02;;;;;;;;;;143741;667;45023;-68
2022/03/15 05:21:43;;;;;;;20.37;12.23;;;;;;;;;;143741;565;46018;-68
2022/03/15 05:24:10;;;;;;;22.08;13.68;;;;;;;;;;143734;633;46921;-69
2022/03/15 05:26:37;;;;;;;26.15;16.58;;;;;;;;;;143735;647;45912;-69
2022/03/15 05:29:04;;;;;;;37.60;16.98;;;;;;;;;;143740;585;45023;-68
2022/03/15 05:31:31;;;;;;;32.63;19.42;;;;;;;;;;143740;595;47018;-67
2022/03/15 05:33:58;;;;;;;33.22;18.42;;;;;;;;;;143738;605;46921;-68
2022/03/15 05:36:25;;;;;;;60.42;27.83;;;;;;;;;;143741;581;46010;-67
2022/03/15 05:38:52;;;;;;;52.22;26.45;;;;;;;;;;143742;563;45022;-67
2022/03/15 05:41:19;;;;;;;38.80;20.92;;;;;;;;;;143739;615;46020;-66
2022/03/15 05:43:46;;;;;;;36.30;18.77;;;;;;;;;;143738;606;46022;-68
2022/03/15 05:46:13;;;;;;;30.60;18.10;;;;;;;;;;143740;576;45912;-67
2022/03/15 05:48:40;;;;;;;38.15;17.33;;;;;;;;;;143741;583;45023;-67
2022/03/15 05:51:07;;;;;;;36.05;19.65;;;;;;;;;;143734;628;46018;-68
2022/03/15 05:53:35;;;;;;;27.02;16.75;;;;;;;;;;143738;633;46022;-67
2022/03/15 05:56:02;;;;;;;41.97;19.45;;;;;;;;;;143742;577;46010;-68
2022/03/15 05:58:29;;;;;;;44.28;22.58;;;;;;;;;;143742;573;46010;-67
2022/03/15 06:00:56;;;;;;;35.30;19.42;;;;;;;;;;143740;771;46018;-69
2022/03/15 06:03:26;;;;;;;35.40;20.60;;;;;;;;;;143740;566;46921;-68
2022/03/15 06:05:56;;;;;;;38.80;22.60;;;;;;;;;;143742;654;45911;-67
2022/03/15 06:08:27;;;;;;;57.13;25.30;;;;;;;;;;143744;752;45022;-68
2022/03/15 06:10:57;;;;;;;60.60;30.50;;;;;;;;;;143742;618;46018;-67
2022/03/15 06:13:27;;;;;;;40.72;24.12;;;;;;;;;;143741;605;45920;-67
2022/03/15 06:16:00;;;;;;;51.53;27.77;;;;;;;;;;143736;585;45911;-68
2022/03/15 06:18:31;;;;;;;48.92;26.85;;;;;;;;;;143743;578;45023;-67
2022/03/15 06:21:00;;;;;;;40.10;23.80;;;;;;;;;;143740;613;45902;-66
2022/03/15 06:23:36;;;;;;;65.70;33.55;;;;;;;;;;143738;577;46010;-68
2022/03/15 06:26:17;;;;;;;75.70;37.95;;;;;;;;;;143744;594;45019;-68
2022/03/15 06:28:58;;;;;;;88.60;46.22;;;;;;;;;;143744;675;45023;-67
2022/03/15 06:31:29;;;;;;;99.93;42.55;;;;;;;;;;143743;593;45020;-68
2022/03/15 06:34:05;;;;;;;81.63;39.45;;;;;;;;;;143740;591;45921;-68
2022/03/15 06:36:38;;;;;;;73.80;36.70;;;;;;;;;;143742;601;46010;-67
2022/03/15 06:39:12;;;;;;;66.45;33.72;;;;;;;;;;143746;569;45022;-68
2022/03/15 06:41:44;;;;;;;57.13;30.15;;;;;;;;;;143737;605;45020;-67
2022/03/15 06:44:15;;;;;;;49.78;28.30;;;;;;;;;;143742;614;46922;-68
2022/03/15 06:46:45;;;;;;;57.78;28.55;;;;;;;;;;143743;585;45911;-67
2022/03/15 06:49:15;;;;;;;52.17;25.80;;;;;;;;;;143742;596;46011;-68
2022/03/15 06:51:48;;;;;;;51.33;25.23;;;;;;;;;;143744;664;46020;-67
2022/03/15 06:54:17;;;;;;;53.22;28.27;;;;;;;;;;143742;590;46921;-68
2022/03/15 06:56:45;;;;;;;45.75;23.48;;;;;;;;;;143742;571;45911;-68
2022/03/15 06:59:13;;;;;;;42.45;23.27;;;;;;;;;;143739;569;47022;-67
2022/03/15 07:01:40;;;;;;;40.45;21.87;;;;;;;;;;143742;614;46010;-70
2022/03/15 07:04:08;;;;;;;38.00;21.37;;;;;;;;;;143739;598;46011;-67
2022/03/15 07:06:35;;;;;;;36.75;19.42;;;;;;;;;;143736;629;46018;-68
2022/03/15 07:09:02;;;;;;;38.40;18.37;;;;;;;;;;143742;591;46022;-70
2022/03/15 07:11:30;;;;;;;36.28;18.40;;;;;;;;;;143740;643;46020;-67
2022/03/15 07:13:57;;;;;;;37.33;18.25;;;;;;;;;;143738;582;46922;-70
2022/03/15 07:16:25;;;;;;;29.42;17.48;;;;;;;;;;143742;679;46018;-68
2022/03/15 07:18:53;;;;;;;32.40;17.45;;;;;;;;;;143743;583;46010;-68
2022/03/15 07:21:23;;;;;;;39.17;17.77;;;;;;;;;;143743;611;45044;-68
2022/03/15 07:23:58;;;;;;;28.38;17.20;;;;;;;;;;143742;564;45921;-68
2022/03/15 07:26:33;;;;;;;28.02;16.23;;;;;;;;;;143744;571;45019;-66
2022/03/15 07:29:22;;;;;;;25.67;15.47;;;;;;;;;;143745;565;45022;-66
2022/03/15 07:57:42;;;;;;;25.37;13.90;;;;;;;;;;143738;578;45021;-66
2022/03/15 08:00:21;;;;;;;;;;;;;;;;;;143750;980;45020;-66
2022/03/15 08:16:00;;;;;;;19.65;10.95;;;;;;;;;;143731;576;45022;-67
2022/03/15 08:26:38;;;;;;;15.50;11.60;;;;;;;;;;143732;613;45023;-67
2022/03/15 08:29:17;;;;;;;14.68;9.70;;;;;;;;;;143732;580;45020;-67
2022/03/15 08:50:01;;;;;;;26.55;15.63;;;;;;;;;;143730;608;45021;-67
2022/03/15 08:52:44;;;;;;;25.02;14.50;;;;;;;;;;143733;565;45020;-66
2022/03/15 08:55:22;;;;;;;15.32;10.50;;;;;;;;;;143731;593;45912;-68
2022/03/15 08:58:01;;;;;;;18.80;9.90;;;;;;;;;;143731;583;45920;-66
2022/03/15 09:00:35;;;;;;;16.83;12.00;;;;;;;;;;143731;601;45910;-68
2022/03/15 09:03:10;;;;;;;21.05;10.88;;;;;;;;;;143733;663;45023;-66
2022/03/15 09:05:40;;;;;;;20.42;11.48;;;;;;;;;;143731;608;45911;-68
2022/03/15 09:08:16;;;;;;;21.15;11.25;;;;;;;;;;143731;708;45929;-66
2022/03/15 09:10:58;;;;;;;14.02;9.85;;;;;;;;;;143731;582;45918;-67
2022/03/15 09:16:08;;;;;;;15.52;9.25;;;;;;;;;;143739;720;45018;-67
2022/03/15 09:18:44;;;;;;;12.68;8.52;;;;;;;;;;143744;796;45921;-67
2022/03/15 09:31:27;;;;;;;27.35;14.87;;;;;;;;;;143740;748;48019;-67
2022/03/15 09:34:02;;;;;;;20.50;11.93;;;;;;;;;;143747;681;45025;-67
2022/03/15 09:36:42;;;;;;;15.60;9.57;;;;;;;;;;143744;569;46020;-67
2022/03/15 09:39:12;;;;;;;17.77;10.75;;;;;;;;;;143742;859;46923;-67
2022/03/15 09:41:49;;;;;;;13.38;8.88;;;;;;;;;;143739;612;45019;-66
2022/03/15 09:44:33;;;;;;;11.65;8.57;;;;;;;;;;143747;607;45022;-66
2022/03/15 09:47:11;;;;;;;14.23;9.45;;;;;;;;;;143745;581;45914;-66
2022/03/15 09:49:50;;;;;;;14.27;9.48;;;;;;;;;;143744;687;46923;-66
2022/03/15 09:52:22;;;;;;;16.52;9.73;;;;;;;;;;143742;565;47018;-65
2022/03/15 09:55:01;;;;;;;20.10;9.27;;;;;;;;;;143746;610;46023;-66
2022/03/15 09:57:35;;;;;;;15.30;9.18;;;;;;;;;;143745;604;45914;-65
2022/03/15 10:00:16;;;;;;;10.82;7.97;;;;;;;;;;143744;571;46022;-65
2022/03/15 10:07:56;;;;;;;14.65;8.77;;;;;;;;;;143741;593;45018;-64
2022/03/15 10:10:24;;;;;;;12.55;7.78;;;;;;;;;;143744;585;46922;-65
2022/03/15 10:12:55;;;;;;;11.43;8.43;;;;;;;;;;143745;601;45912;-65
2022/03/15 10:15:32;;;;;;;12.05;8.23;;;;;;;;;;143747;569;45022;-65
2022/03/15 10:18:07;;;;;;;10.98;8.07;;;;;;;;;;143745;623;45917;-65
2022/03/15 10:20:42;;;;;;;13.18;8.52;;;;;;;;;;143744;576;45923;-64
2022/03/15 10:23:11;;;;;;;14.15;9.32;;;;;;;;;;143745;611;46018;-65
2022/03/15 10:25:42;;;;;;;12.73;8.13;;;;;;;;;;143745;565;46023;-65
2022/03/15 10:28:10;;;;;;;11.63;8.80;;;;;;;;;;143745;613;45916;-67
2022/03/15 10:30:38;;;;;;;12.52;8.38;;;;;;;;;;143742;619;46922;-65
2022/03/15 10:33:08;;;;;;;12.40;7.78;;;;;;;;;;143737;581;46010;-65
2022/03/15 10:35:44;;;;;;;14.30;9.00;;;;;;;;;;143742;581;45022;-66
2022/03/15 10:38:13;;;;;;;12.98;7.80;;;;;;;;;;143745;623;45916;-66
2022/03/15 10:40:46;;;;;;;12.32;7.47;;;;;;;;;;143741;580;46923;-67
2022/03/15 10:43:26;;;;;;;11.60;7.57;;;;;;;;;;143743;581;46018;-65
2022/03/15 10:45:57;;;;;;;10.15;7.75;;;;;;;;;;143745;615;46022;-65
2022/03/15 10:48:32;;;;;;;11.90;8.23;;;;;;;;;;143742;573;46021;-66
2022/03/15 10:51:16;;;;;;;11.10;7.57;;;;;;;;;;143742;590;46922;-67
2022/03/15 10:53:47;;;;;;;13.05;8.05;;;;;;;;;;143745;619;46019;-66
2022/03/15 10:56:24;;;;;;;14.40;7.87;;;;;;;;;;143746;592;46010;-67
2022/03/15 10:59:02;;;;;;;12.77;7.57;;;;;;;;;;143740;587;45020;-67
2022/03/15 11:01:36;;;;;;;13.18;7.50;;;;;;;;;;143740;591;46922;-66
2022/03/15 11:04:08;;;;;;;11.25;7.07;;;;;;;;;;143743;609;46018;-67
2022/03/15 11:06:40;;;;;;;12.85;7.55;;;;;;;;;;143745;604;46022;-65
2022/03/15 11:09:27;;;;;;;12.77;9.07;;;;;;;;;;143744;591;46019;-64
2022/03/15 11:12:05;;;;;;;26.05;17.00;;;;;;;;;;143741;565;46022;-66
2022/03/15 11:14:51;;;;;;;33.92;21.92;;;;;;;;;;143744;631;46018;-65
2022/03/15 11:17:25;;;;;;;24.35;13.52;;;;;;;;;;143745;637;46023;-66
2022/03/15 11:20:05;;;;;;;16.25;9.45;;;;;;;;;;143741;644;47018;-66
2022/03/15 11:22:37;;;;;;;13.35;8.90;;;;;;;;;;143745;602;45922;-66
2022/03/15 11:25:17;;;;;;;23.67;15.43;;;;;;;;;;143737;590;46019;-66
2022/03/15 11:27:47;;;;;;;9.10;7.40;;;;;;;;;;143746;587;45022;-66
2022/03/15 11:30:20;;;;;;;17.83;11.12;;;;;;;;;;143745;602;46038;-66
2022/03/15 11:32:51;;;;;;;15.18;9.85;;;;;;;;;;143744;570;46021;-64
2022/03/15 11:35:22;;;;;;;11.12;8.05;;;;;;;;;;143745;566;45020;-67
2022/03/15 11:37:52;;;;;;;18.62;8.55;;;;;;;;;;143745;588;46020;-67
2022/03/15 11:40:22;;;;;;;15.02;8.63;;;;;;;;;;143741;585;46022;-67
2022/03/15 11:42:59;;;;;;;13.25;8.30;;;;;;;;;;143744;574;45920;-66
2022/03/15 11:45:52;;;;;;;13.18;9.27;;;;;;;;;;143745;594;45913;-65
2022/03/15 11:48:55;;;;;;;10.10;7.65;;;;;;;;;;143745;569;46010;-66
2022/03/15 11:51:53;;;;;;;16.77;10.02;;;;;;;;;;143739;570;45024;-66
2022/03/15 11:54:47;;;;;;;27.27;17.15;;;;;;;;;;143741;589;46011;-66
2022/03/15 11:57:51;;;;;;;18.58;12.65;;;;;;;;;;143743;576;46010;-65
2022/03/15 12:00:54;;;;;;;13.32;9.07;;;;;;;;;;143743;585;46020;-66
2022/03/15 12:03:23;;;;;;;10.95;8.45;;;;;;;;;;143744;600;46020;-65
2022/03/15 12:05:57;;;;;;;19.12;10.82;;;;;;;;;;143743;575;46010;-67
2022/03/15 12:08:26;;;;;;;30.20;17.73;;;;;;;;;;143742;581;46010;-66
2022/03/15 12:11:12;;;;;;;18.35;11.35;;;;;;;;;;143742;581;46020;-66
2022/03/15 12:13:45;;;;;;;17.98;12.77;;;;;;;;;;143744;573;46020;-65
2022/03/15 12:16:15;;;;;;;13.15;8.80;;;;;;;;;;143740;691;46020;-67
2022/03/15 12:18:54;;;;;;;13.90;8.90;;;;;;;;;;143737;564;46010;-67
2022/03/15 12:21:27;;;;;;;11.75;8.25;;;;;;;;;;143734;796;45020;-66
2022/03/15 12:23:55;;;;;;;11.05;8.32;;;;;;;;;;143744;614;46021;-65
2022/03/15 12:26:26;;;;;;;11.48;7.97;;;;;;;;;;143742;619;46020;-65
2022/03/15 12:29:04;;;;;;;14.38;8.40;;;;;;;;;;143743;566;45911;-65
2022/03/15 12:31:57;;;;;;;12.23;8.77;;;;;;;;;;143744;623;46020;-66
2022/03/15 12:34:26;;;;;;;10.57;7.80;;;;;;;;;;143745;630;46010;-66
2022/03/15 12:37:01;;;;;;;13.38;9.20;;;;;;;;;;143742;570;46020;-66
2022/03/15 12:39:30;;;;;;;15.07;8.48;;;;;;;;;;143742;591;46010;-66
2022/03/15 12:42:16;;;;;;;15.55;9.02;;;;;;;;;;143746;789;45018;-67
2022/03/15 12:44:51;;;;;;;12.23;8.18;;;;;;;;;;143736;633;46022;-68
2022/03/15 12:47:26;;;;;;;12.90;8.38;;;;;;;;;;143740;627;46919;-66
2022/03/15 12:50:31;;;;;;;12.50;8.13;;;;;;;;;;143744;592;45911;-65
2022/03/15 12:53:11;;;;;;;14.10;8.77;;;;;;;;;;143744;570;46011;-66
2022/03/15 12:55:41;;;;;;;14.27;8.25;;;;;;;;;;143744;603;46020;-66
2022/03/15 12:58:13;;;;;;;10.27;7.72;;;;;;;;;;143740;633;46020;-67
2022/03/15 13:00:45;;;;;;;11.60;7.65;;;;;;;;;;143739;625;47021;-65
2022/03/15 13:03:13;;;;;;;27.08;9.65;;;;;;;;;;143743;566;46020;-66
2022/03/15 13:05:42;;;;;;;10.10;7.87;;;;;;;;;;143741;780;46020;-66
2022/03/15 13:08:11;;;;;;;11.57;8.23;;;;;;;;;;143739;565;46021;-67
2022/03/15 13:10:43;;;;;;;13.57;8.18;;;;;;;;;;143735;618;46010;-67
2022/03/15 13:13:27;;;;;;;11.77;8.48;;;;;;;;;;143741;800;45020;-66
2022/03/15 13:16:05;;;;;;;12.60;7.65;;;;;;;;;;143742;588;46012;-66
2022/03/15 13:18:36;;;;;;;11.12;7.07;;;;;;;;;;143739;601;46921;-65
2022/03/15 13:21:05;;;;;;;9.98;7.68;;;;;;;;;;143742;570;46020;-67
2022/03/15 13:23:41;;;;;;;12.00;8.20;;;;;;;;;;143740;575;46021;-66
2022/03/15 13:26:12;;;;;;;14.43;8.50;;;;;;;;;;143741;637;46022;-66
2022/03/15 13:28:50;;;;;;;13.62;8.00;;;;;;;;;;143738;569;46921;-66
2022/03/15 13:31:20;;;;;;;11.82;8.50;;;;;;;;;;143741;807;46010;-65
2022/03/15 13:33:56;;;;;;;12.23;8.13;;;;;;;;;;143738;659;46020;-65
2022/03/15 13:36:28;;;;;;;11.90;7.75;;;;;;;;;;143734;568;45916;-65
2022/03/15 13:39:03;;;;;;;14.77;9.18;;;;;;;;;;143741;646;46921;-65
2022/03/15 13:41:54;;;;;;;11.95;7.60;;;;;;;;;;143742;611;46010;-67
2022/03/15 13:44:27;;;;;;;11.12;7.90;;;;;;;;;;143742;584;46020;-66
2022/03/15 13:47:15;;;;;;;11.95;7.90;;;;;;;;;;143742;566;46023;-65
2022/03/15 13:49:45;;;;;;;11.73;7.65;;;;;;;;;;143741;579;45918;-65
2022/03/15 13:52:17;;;;;;;11.80;8.20;;;;;;;;;;143741;633;46021;-65
2022/03/15 13:55:09;;;;;;;12.50;8.45;;;;;;;;;;143741;571;46010;-65
2022/03/15 13:57:38;;;;;;;11.40;8.32;;;;;;;;;;143737;633;47020;-65
2022/03/15 14:00:14;;;;;;;13.88;8.70;;;;;;;;;;143740;589;45919;-65
2022/03/15 14:02:41;;;;;;;14.15;8.75;;;;;;;;;;143734;565;46020;-66
2022/03/15 14:05:12;;;;;;;14.10;8.68;;;;;;;;;;143741;570;47010;-67
2022/03/15 14:07:39;;;;;;;14.20;8.13;;;;;;;;;;143742;651;46021;-66
2022/03/15 14:10:09;;;;;;;12.52;7.68;;;;;;;;;;143739;569;46919;-68
2022/03/15 14:12:38;;;;;;;13.62;8.65;;;;;;;;;;143742;616;45910;-67
2022/03/15 14:15:11;;;;;;;11.55;7.75;;;;;;;;;;143743;641;46020;-66
2022/03/15 14:17:50;;;;;;;13.27;8.85;;;;;;;;;;143743;576;45912;-67
2022/03/15 14:20:25;;;;;;;11.88;8.23;;;;;;;;;;143739;645;46918;-68
2022/03/15 14:22:56;;;;;;;12.75;8.38;;;;;;;;;;143742;580;46021;-68
2022/03/15 14:25:28;;;;;;;10.48;7.05;;;;;;;;;;143739;589;46020;-68
2022/03/15 14:28:05;;;;;;;11.52;8.60;;;;;;;;;;143734;628;46020;-65
2022/03/15 14:30:33;;;;;;;11.75;8.30;;;;;;;;;;143739;571;46021;-66
2022/03/15 14:33:23;;;;;;;11.73;8.57;;;;;;;;;;143740;583;46020;-66
2022/03/15 14:36:00;;;;;;;13.00;8.23;;;;;;;;;;143742;622;45020;-66
2022/03/15 14:38:38;;;;;;;13.18;8.82;;;;;;;;;;143739;569;46023;-66
2022/03/15 14:41:05;;;;;;;18.00;9.10;;;;;;;;;;143738;601;46020;-66
2022/03/15 14:43:35;;;;;;;12.95;7.60;;;;;;;;;;143740;640;46020;-65
2022/03/15 14:46:06;;;;;;;15.07;7.95;;;;;;;;;;143742;610;45021;-67
2022/03/15 14:48:35;;;;;;;16.50;9.05;;;;;;;;;;143740;595;46022;-67
2022/03/15 14:51:04;;;;;;;10.25;8.02;;;;;;;;;;143740;580;46020;-68
2022/03/15 14:53:33;;;;;;;12.45;7.57;;;;;;;;;;143738;571;45021;-66
2022/03/15 14:56:00;;;;;;;12.05;8.02;;;;;;;;;;143742;601;45020;-67
2022/03/15 14:58:29;;;;;;;12.18;7.97;;;;;;;;;;143742;609;46020;-66
2022/03/15 15:00:56;;;;;;;13.15;7.78;;;;;;;;;;143739;566;46921;-66
2022/03/15 15:03:25;;;;;;;13.90;8.20;;;;;;;;;;143740;595;46020;-66
2022/03/15 15:05:57;;;;;;;15.32;8.20;;;;;;;;;;143743;563;45020;-67
2022/03/15 15:08:26;;;;;;;15.43;8.02;;;;;;;;;;143738;571;47023;-65
2022/03/15 15:10:54;;;;;;;11.93;8.18;;;;;;;;;;143737;736;46920;-66
2022/03/15 15:13:24;;;;;;;13.43;8.20;;;;;;;;;;143739;593;46020;-67
2022/03/15 15:15:51;;;;;;;10.75;7.18;;;;;;;;;;143743;582;45021;-67
2022/03/15 15:18:19;;;;;;;10.52;7.65;;;;;;;;;;143734;587;46022;-65
2022/03/15 15:20:47;;;;;;;11.05;7.75;;;;;;;;;;143741;564;46021;-66
2022/03/15 15:23:15;;;;;;;10.52;7.55;;;;;;;;;;143742;587;46021;-66
2022/03/15 15:25:43;;;;;;;9.90;7.25;;;;;;;;;;143744;620;45020;-66
2022/03/15 15:28:14;;;;;;;12.75;8.32;;;;;;;;;;143742;565;46021;-65
2022/03/15 15:30:45;;;;;;;11.43;7.57;;;;;;;;;;143739;580;46021;-65
2022/03/15 15:33:12;;;;;;;9.57;7.85;;;;;;;;;;143741;699;46020;-65
2022/03/15 15:35:40;;;;;;;13.40;8.30;;;;;;;;;;143742;626;46020;-67
2022/03/15 15:38:10;;;;;;;10.50;7.47;;;;;;;;;;143741;615;46021;-65
2022/03/15 15:40:42;;;;;;;12.60;7.47;;;;;;;;;;143739;575;46020;-65
2022/03/15 15:43:10;;;;;;;11.00;7.60;;;;;;;;;;143735;569;46020;-65
2022/03/15 15:45:40;;;;;;;12.55;8.75;;;;;;;;;;143741;579;45021;-66
2022/03/15 15:48:11;;;;;;;11.23;8.35;;;;;;;;;;143740;601;46012;-65
2022/03/15 15:50:40;;;;;;;13.50;8.43;;;;;;;;;;143740;605;46020;-65
2022/03/15 15:53:08;;;;;;;11.90;7.55;;;;;;;;;;143741;564;46012;-65
2022/03/15 15:55:39;;;;;;;10.35;7.32;;;;;;;;;;143741;597;46018;-66
2022/03/15 15:58:06;;;;;;;11.77;7.95;;;;;;;;;;143741;588;46021;-65
2022/03/15 16:00:36;;;;;;;12.02;7.32;;;;;;;;;;143738;579;46921;-65
2022/03/15 16:03:04;;;;;;;11.05;8.57;;;;;;;;;;143742;564;46012;-65
2022/03/15 16:05:31;;;;;;;17.15;9.25;;;;;;;;;;143741;633;46020;-66
2022/03/15 16:08:02;;;;;;;12.73;8.52;;;;;;;;;;143735;710;46020;-65
2022/03/15 16:10:29;;;;;;;15.23;8.52;;;;;;;;;;143736;578;47012;-65